Time;durP1;ratioP1;P1;durP2;ratioP2;P2;SDS_P1;SDS_P2;PMS_P1;PMS_P2;Temp;Humidity;BMP_temperature;BMP_pressure;BME280_temperature;BME280_humidity;BME280_pressure;Samples;Min_cycle;Max_cycle;Signal;HPM_P1;HPM_P2
2021/03/18 00:01:47;;;;;;;20.02;11.00;;;;;;;-0.37;93.87;102665.34;4972933;28;20097;-78
2021/03/18 00:04:16;;;;;;;18.55;10.38;;;;;;;-0.37;93.66;102662.78;4974401;28;20046;-80
2021/03/18 00:06:44;;;;;;;22.52;11.13;;;;;;;-0.34;93.66;102670.44;4954911;28;20050;-78
2021/03/18 00:09:13;;;;;;;17.38;10.52;;;;;;;-0.32;94.07;102664.38;4975458;28;20034;-78
2021/03/18 00:11:40;;;;;;;17.63;11.82;;;;;;;-0.32;94.26;102664.38;4974155;28;21640;-76
2021/03/18 00:14:10;;;;;;;18.08;11.60;;;;;;;-0.36;94.01;102657.56;4989997;28;20050;-77
2021/03/18 00:16:36;;;;;;;17.90;12.43;;;;;;;-0.32;93.92;102656.66;4951330;28;20050;-78
2021/03/18 00:19:03;;;;;;;21.55;11.73;;;;;;;-0.26;94.05;102672.00;4985631;28;20081;-78
2021/03/18 00:21:29;;;;;;;16.65;11.50;;;;;;;-0.24;93.91;102666.81;4954881;28;20587;-77
2021/03/18 00:23:54;;;;;;;18.77;12.38;;;;;;;-0.29;94.25;102666.88;4982534;28;20054;-78
2021/03/18 00:26:31;;;;;;;20.05;12.60;;;;;;;-0.26;94.07;102663.44;4951639;28;20548;-76
2021/03/18 00:28:58;;;;;;;19.42;12.57;;;;;;;-0.28;94.27;102657.44;4986628;28;20598;-78
2021/03/18 00:31:27;;;;;;;19.02;12.23;;;;;;;-0.29;94.34;102659.16;4967722;28;20418;-78
2021/03/18 00:33:53;;;;;;;20.90;13.32;;;;;;;-0.23;94.30;102653.91;4936860;28;20438;-78
2021/03/18 00:36:20;;;;;;;18.90;12.20;;;;;;;-0.19;94.39;102644.34;4974309;28;20161;-76
2021/03/18 00:38:46;;;;;;;22.38;13.73;;;;;;;-0.04;95.19;102656.09;4971316;28;20053;-77
2021/03/18 00:41:12;;;;;;;25.65;14.48;;;;;;;-0.03;94.84;102643.16;4968253;28;20518;-76
2021/03/18 00:43:38;;;;;;;24.50;13.57;;;;;;;0.09;94.84;102642.06;4984922;28;20466;-76
2021/03/18 00:46:05;;;;;;;23.70;14.38;;;;;;;0.07;94.54;102632.66;4954664;28;20046;-77
2021/03/18 00:48:33;;;;;;;20.98;14.50;;;;;;;0.15;94.83;102641.94;4982183;28;20046;-76
2021/03/18 00:51:03;;;;;;;25.52;14.40;;;;;;;0.24;94.57;102624.56;4987145;28;20076;-77
2021/03/18 00:53:36;;;;;;;22.95;13.43;;;;;;;0.18;94.28;102625.53;4956255;28;20049;-79
2021/03/18 00:56:05;;;;;;;23.77;13.85;;;;;;;0.16;94.87;102624.72;4956467;28;20830;-78
2021/03/18 00:58:30;;;;;;;22.13;13.07;;;;;;;0.15;94.53;102621.31;4955150;28;20577;-78
2021/03/18 01:01:00;;;;;;;25.15;13.90;;;;;;;0.04;94.41;102607.78;4969045;28;20062;-77
2021/03/18 01:03:31;;;;;;;22.10;13.30;;;;;;;-0.03;94.33;102608.78;4953956;28;20061;-78
2021/03/18 01:06:00;;;;;;;20.52;12.88;;;;;;;-0.14;94.90;102606.41;4987882;28;20050;-77
2021/03/18 01:08:27;;;;;;;23.35;14.38;;;;;;;-0.31;94.94;102596.44;4951197;28;20527;-77
2021/03/18 01:11:13;;;;;;;20.88;13.82;;;;;;;-0.32;95.02;102612.81;4969673;28;20088;-76
2021/03/18 01:13:42;;;;;;;22.50;13.48;;;;;;;-0.32;94.83;102611.94;4985996;28;20059;-77
2021/03/18 01:16:20;;;;;;;19.83;13.40;;;;;;;-0.44;95.28;102602.72;4986375;28;20592;-75
2021/03/18 01:18:58;;;;;;;25.95;14.00;;;;;;;-0.55;95.31;102597.78;4970729;28;20050;-77
2021/03/18 01:21:45;;;;;;;24.42;14.40;;;;;;;-0.60;95.19;102607.34;4969983;28;20635;-76
2021/03/18 01:24:12;;;;;;;22.55;13.77;;;;;;;-0.65;95.37;102599.69;4987427;28;20054;-77
2021/03/18 01:26:39;;;;;;;23.05;13.88;;;;;;;-0.60;95.45;102605.59;4954108;28;20043;-78
2021/03/18 01:29:05;;;;;;;25.35;16.05;;;;;;;-0.62;95.72;102598.78;4975242;28;20038;-79
2021/03/18 01:31:32;;;;;;;28.92;15.93;;;;;;;-0.64;95.95;102597.94;4970243;28;20038;-76
2021/03/18 01:33:58;;;;;;;24.75;14.60;;;;;;;-0.64;95.87;102606.53;4971487;28;20077;-76
2021/03/18 01:36:24;;;;;;;30.23;16.05;;;;;;;-0.63;96.31;102605.66;4969752;28;20065;-76
2021/03/18 01:38:50;;;;;;;25.38;15.43;;;;;;;-0.64;96.46;102601.38;4953796;28;20042;-75
2021/03/18 01:41:17;;;;;;;22.85;14.70;;;;;;;-0.58;95.75;102603.00;4951423;28;20105;-77
2021/03/18 01:43:44;;;;;;;24.23;15.32;;;;;;;-0.54;95.72;102602.06;4968043;28;20468;-76
2021/03/18 01:46:11;;;;;;;23.63;15.40;;;;;;;-0.55;95.68;102591.78;4984687;28;20526;-76
2021/03/18 01:48:37;;;;;;;27.30;16.10;;;;;;;-0.53;95.79;102588.28;4984981;28;20213;-77
2021/03/18 01:51:04;;;;;;;23.60;14.82;;;;;;;-0.56;95.33;102583.19;4987023;28;20077;-78
2021/03/18 01:53:30;;;;;;;27.70;15.65;;;;;;;-0.48;95.42;102585.63;4985313;28;20057;-77
2021/03/18 01:55:58;;;;;;;27.70;16.02;;;;;;;-0.46;95.33;102583.88;4971662;28;20425;-77
2021/03/18 01:58:24;;;;;;;26.10;15.95;;;;;;;-0.43;95.57;102589.81;4973792;28;20057;-75
2021/03/18 02:00:54;;;;;;;27.60;15.77;;;;;;;-0.46;95.24;102578.72;4967771;28;20131;-76
2021/03/18 02:03:19;;;;;;;26.20;17.10;;;;;;;-0.50;95.72;102587.38;4995969;28;20046;-76
2021/03/18 02:05:46;;;;;;;27.55;16.92;;;;;;;-0.52;95.95;102589.16;4969318;28;20096;-77
2021/03/18 02:08:13;;;;;;;30.65;18.05;;;;;;;-0.61;95.94;102580.69;4957726;28;20049;-75
2021/03/18 02:10:39;;;;;;;26.55;16.27;;;;;;;-0.69;95.68;102574.00;4984891;28;20516;-76
2021/03/18 02:13:06;;;;;;;26.90;17.05;;;;;;;-0.77;95.92;102575.84;4968567;28;20510;-76
2021/03/18 02:15:38;;;;;;;30.05;17.00;;;;;;;-0.84;95.76;102573.41;4970605;28;20034;-76
2021/03/18 02:18:42;;;;;;;28.60;16.42;;;;;;;-0.91;95.64;102566.66;4986107;28;20047;-76
2021/03/18 02:21:10;;;;;;;;;;;;;;;-0.98;95.79;102571.09;4969507;28;20089;-77
2021/03/18 02:24:13;;;;;;;27.08;16.05;;;;;;;-1.04;96.08;102573.75;4985171;28;20036;-77
2021/03/18 02:27:16;;;;;;;24.17;15.70;;;;;;;-1.11;96.33;102566.16;4974596;28;20585;-78
2021/03/18 02:30:26;;;;;;;33.28;18.40;;;;;;;-1.19;96.44;102562.00;4969992;28;20046;-78
2021/03/18 02:33:23;;;;;;;25.55;16.65;;;;;;;-1.27;96.53;102569.00;4954922;28;20060;-77
2021/03/18 02:36:02;;;;;;;37.08;19.30;;;;;;;-1.18;96.75;102562.84;4988118;28;20096;-77
2021/03/18 02:38:47;;;;;;;43.05;20.95;;;;;;;-1.05;97.74;102566.91;4971272;28;20592;-76
2021/03/18 02:41:37;;;;;;;72.22;27.77;;;;;;;-0.98;97.61;102567.63;4978361;28;20053;-78
2021/03/18 02:44:08;;;;;;;73.63;28.08;;;;;;;-0.91;97.98;102558.09;4984024;28;20077;-76
2021/03/18 02:46:35;;;;;;;101.97;34.63;;;;;;;-0.84;98.25;102555.38;4985973;28;20100;-79
2021/03/18 02:49:04;;;;;;;88.60;31.80;;;;;;;-0.79;98.24;102552.72;4954867;28;20080;-77
2021/03/18 02:51:32;;;;;;;86.53;33.42;;;;;;;-0.79;98.29;102550.13;4968185;28;20046;-78
2021/03/18 02:54:19;;;;;;;91.50;35.35;;;;;;;-0.75;98.74;102554.34;4987408;28;20480;-78
2021/03/18 02:56:47;;;;;;;100.78;34.97;;;;;;;-0.71;98.54;102558.56;4988130;28;20933;-76
2021/03/18 02:59:18;;;;;;;105.68;35.85;;;;;;;-0.59;98.68;102560.03;4984056;28;20070;-80
2021/03/18 03:01:45;;;;;;;96.53;36.03;;;;;;;-0.61;98.53;102551.50;5000103;28;20782;-80
2021/03/18 03:04:12;;;;;;;94.03;36.03;;;;;;;-0.55;98.90;102556.53;4987836;28;20046;-79
2021/03/18 03:06:39;;;;;;;94.55;33.83;;;;;;;-0.55;98.98;102545.38;4956389;28;20563;-79
2021/03/18 03:09:07;;;;;;;93.75;33.30;;;;;;;-0.44;98.30;102548.59;4979427;28;20695;-78
2021/03/18 03:11:36;;;;;;;62.25;26.50;;;;;;;-0.34;98.15;102554.41;4974204;28;20035;-77
2021/03/18 03:14:04;;;;;;;64.97;27.55;;;;;;;-0.40;98.08;102553.66;4969771;28;20062;-77
2021/03/18 03:16:30;;;;;;;168.55;30.77;;;;;;;-0.50;98.34;102539.25;4951689;28;20161;-77
2021/03/18 03:18:56;;;;;;;68.95;27.80;;;;;;;-0.44;98.25;102543.44;4971643;28;20486;-78
2021/03/18 03:21:23;;;;;;;61.10;27.38;;;;;;;-0.51;98.38;102536.69;4951067;28;20054;-78
2021/03/18 03:23:49;;;;;;;62.95;26.77;;;;;;;-0.52;98.17;102533.28;4955426;28;20780;-80
2021/03/18 03:26:21;;;;;;;75.72;28.27;;;;;;;-0.50;98.34;102534.09;4961575;28;20137;-78
2021/03/18 03:28:48;;;;;;;70.85;29.65;;;;;;;-0.53;98.27;102534.13;4971385;28;20047;-78
2021/03/18 03:31:14;;;;;;;71.25;26.55;;;;;;;-0.43;98.35;102540.81;4947092;28;20146;-77
2021/03/18 03:33:40;;;;;;;88.55;29.23;;;;;;;-0.56;98.01;102543.69;4971454;28;20413;-76
2021/03/18 03:36:07;;;;;;;63.10;25.77;;;;;;;-0.49;97.85;102538.38;4957490;28;20042;-78
2021/03/18 03:38:33;;;;;;;79.03;28.35;;;;;;;-0.50;97.75;102552.13;4974912;28;20504;-77
2021/03/18 03:40:59;;;;;;;56.58;24.17;;;;;;;-0.60;97.72;102542.91;4973955;28;20057;-77
2021/03/18 03:43:25;;;;;;;101.80;30.58;;;;;;;-0.65;97.92;102561.00;4961018;28;20410;-79
2021/03/18 03:45:52;;;;;;;97.53;26.05;;;;;;;-0.69;98.30;102543.06;4969183;28;20054;-77
2021/03/18 03:48:19;;;;;;;53.17;22.75;;;;;;;-0.64;98.16;102555.00;4974619;28;20046;-77
2021/03/18 03:50:45;;;;;;;79.22;24.30;;;;;;;-0.61;98.35;102556.66;4990607;28;20042;-77
2021/03/18 03:53:17;;;;;;;65.80;24.17;;;;;;;-0.69;98.38;102553.38;4956108;28;20420;-77
2021/03/18 03:56:03;;;;;;;66.15;24.75;;;;;;;-0.68;98.40;102560.22;4951710;28;20074;-77
2021/03/18 03:58:29;;;;;;;66.32;25.80;;;;;;;-0.80;98.58;102559.56;4970562;28;20054;-78
2021/03/18 04:00:58;;;;;;;51.85;24.65;;;;;;;-0.87;98.63;102557.16;4975559;28;20682;-77
2021/03/18 04:03:26;;;;;;;56.10;25.42;;;;;;;-0.81;98.45;102551.88;4990942;28;20058;-78
2021/03/18 04:05:56;;;;;;;51.30;24.02;;;;;;;-0.71;98.27;102550.00;4969440;28;20050;-78
2021/03/18 04:08:24;;;;;;;50.95;24.30;;;;;;;-0.75;97.79;102532.88;4974694;28;20038;-79
2021/03/18 04:10:52;;;;;;;51.58;23.80;;;;;;;-0.61;97.92;102546.34;4990914;28;20515;-78
2021/03/18 04:13:19;;;;;;;51.50;23.73;;;;;;;-0.56;97.00;102547.09;4973487;28;20042;-77
2021/03/18 04:15:47;;;;;;;53.03;23.23;;;;;;;-0.73;96.44;102542.28;4989075;28;20046;-77
2021/03/18 04:18:14;;;;;;;62.78;27.30;;;;;;;-0.85;97.23;102539.94;4990187;28;20065;-79
2021/03/18 04:20:42;;;;;;;66.47;25.75;;;;;;;-0.86;97.15;102546.81;4972143;28;20047;-77
2021/03/18 04:23:09;;;;;;;61.05;25.70;;;;;;;-0.69;97.42;102537.94;4989617;28;20051;-78
2021/03/18 04:25:35;;;;;;;56.88;25.23;;;;;;;-0.74;97.00;102539.72;4958308;28;20057;-78
2021/03/18 04:28:02;;;;;;;62.22;24.92;;;;;;;-0.80;97.39;102538.97;4968191;28;20046;-77
2021/03/18 04:30:29;;;;;;;65.72;26.02;;;;;;;-0.80;97.56;102538.97;4990371;28;20050;-78
2021/03/18 04:32:56;;;;;;;63.13;25.65;;;;;;;-0.78;97.71;102538.94;4964000;28;20049;-78
2021/03/18 04:35:24;;;;;;;81.80;26.95;;;;;;;-0.71;97.14;102537.94;4958599;28;20066;-78
2021/03/18 04:37:50;;;;;;;64.60;26.58;;;;;;;-0.61;97.18;102533.44;4975499;28;20061;-77
2021/03/18 04:40:18;;;;;;;58.08;25.55;;;;;;;-0.79;97.08;102532.09;4959838;28;20081;-79
2021/03/18 04:42:45;;;;;;;60.80;25.90;;;;;;;-0.79;97.65;102530.38;4978560;28;20105;-78
2021/03/18 04:45:12;;;;;;;81.88;28.17;;;;;;;-0.83;97.53;102541.63;4984346;28;20111;-77
2021/03/18 04:47:40;;;;;;;66.22;25.98;;;;;;;-0.89;97.89;102533.13;5014413;28;20101;-80
2021/03/18 04:50:06;;;;;;;64.72;27.35;;;;;;;-0.74;97.60;102542.31;4996945;28;20059;-80
2021/03/18 04:52:32;;;;;;;69.00;27.17;;;;;;;-0.72;97.73;102532.81;4980859;28;20068;-77
2021/03/18 04:54:59;;;;;;;69.07;27.58;;;;;;;-0.80;98.24;102526.06;4963611;28;20042;-76
2021/03/18 04:57:25;;;;;;;65.45;24.58;;;;;;;-0.89;97.66;102518.53;4984976;28;20412;-79
2021/03/18 04:59:52;;;;;;;56.30;23.20;;;;;;;-0.80;98.15;102513.19;4973774;28;20058;-77
2021/03/18 05:02:19;;;;;;;56.75;22.60;;;;;;;-0.79;98.17;102517.47;4988620;28;20081;-78
2021/03/18 05:04:45;;;;;;;67.35;25.30;;;;;;;-0.64;97.92;102525.78;4958178;28;20065;-79
2021/03/18 05:07:15;;;;;;;62.20;26.85;;;;;;;-0.61;98.12;102521.41;4973164;28;20130;-78
2021/03/18 05:09:42;;;;;;;62.72;24.58;;;;;;;-0.48;97.94;102523.75;4973265;28;20105;-77
2021/03/18 05:12:09;;;;;;;61.78;23.75;;;;;;;-0.48;97.26;102516.03;4955287;28;20336;-78
2021/03/18 05:14:35;;;;;;;61.33;22.33;;;;;;;-0.48;97.65;102506.53;4988674;28;20568;-78
2021/03/18 05:17:02;;;;;;;54.72;23.13;;;;;;;-0.51;97.58;102510.91;4972523;28;20050;-78
2021/03/18 05:19:28;;;;;;;47.67;20.60;;;;;;;-0.52;97.85;102512.66;4953804;28;20118;-78
2021/03/18 05:21:54;;;;;;;43.00;19.83;;;;;;;-0.48;97.58;102514.28;4969523;28;20050;-78
2021/03/18 05:24:21;;;;;;;50.22;20.17;;;;;;;-0.58;97.58;102505.06;4973538;28;20631;-78
2021/03/18 05:26:46;;;;;;;48.70;19.95;;;;;;;-0.60;97.68;102517.13;4970606;28;20225;-78
2021/03/18 05:29:17;;;;;;;43.03;18.50;;;;;;;-0.67;97.75;102502.66;4951328;28;20485;-78
2021/03/18 05:31:44;;;;;;;48.47;18.45;;;;;;;-0.68;98.25;102504.41;4957502;28;20050;-78
2021/03/18 05:34:10;;;;;;;51.22;18.85;;;;;;;-0.65;98.16;102504.31;4955679;28;20423;-79
2021/03/18 05:36:37;;;;;;;37.60;18.10;;;;;;;-0.70;98.05;102484.66;4964352;28;20049;-79
2021/03/18 05:39:04;;;;;;;47.67;18.20;;;;;;;-0.61;98.26;102495.63;5002700;28;20053;-78
2021/03/18 05:41:29;;;;;;;44.75;17.73;;;;;;;-0.45;97.92;102495.34;4973844;28;20058;-78
2021/03/18 05:43:56;;;;;;;46.20;18.98;;;;;;;-0.40;97.44;102501.22;4969431;28;20051;-80
2021/03/18 05:46:22;;;;;;;44.75;18.10;;;;;;;-0.42;97.40;102482.38;4956214;28;20038;-77
2021/03/18 05:48:49;;;;;;;44.10;18.60;;;;;;;-0.44;97.50;102476.41;4972711;28;20050;-79
2021/03/18 05:51:16;;;;;;;64.55;20.17;;;;;;;-0.38;97.71;102484.00;4948092;28;20129;-78
2021/03/18 05:53:47;;;;;;;48.58;17.63;;;;;;;-0.38;97.80;102484.00;4973519;28;20053;-77
2021/03/18 05:56:17;;;;;;;48.17;16.95;;;;;;;-0.35;97.71;102483.94;4984784;28;20444;-78
2021/03/18 05:58:46;;;;;;;56.33;18.67;;;;;;;-0.44;97.72;102486.72;4970552;28;20408;-78
2021/03/18 06:01:12;;;;;;;48.25;17.50;;;;;;;-0.47;97.67;102479.91;4986713;28;20054;-78
2021/03/18 06:03:37;;;;;;;47.00;17.45;;;;;;;-0.35;97.92;102493.41;4973503;28;20050;-78
2021/03/18 06:06:05;;;;;;;49.75;18.67;;;;;;;-0.36;98.11;102487.38;4970462;28;20169;-78
2021/03/18 06:08:37;;;;;;;51.15;17.38;;;;;;;-0.32;98.09;102480.44;4973434;28;20040;-77
2021/03/18 06:11:05;;;;;;;46.30;17.50;;;;;;;-0.21;97.83;102496.50;4982127;28;20047;-77
2021/03/18 06:13:31;;;;;;;45.28;17.13;;;;;;;-0.25;97.86;102485.41;4965347;28;20069;-77
2021/03/18 06:15:57;;;;;;;41.30;16.70;;;;;;;-0.34;98.15;102477.03;4987938;28;20149;-80
2021/03/18 06:18:24;;;;;;;80.57;19.10;;;;;;;-0.29;98.61;102501.00;4987959;28;20133;-78
2021/03/18 06:20:51;;;;;;;78.63;19.02;;;;;;;-0.38;98.79;102486.56;4972848;28;20125;-78
2021/03/18 06:23:17;;;;;;;55.35;18.25;;;;;;;-0.15;98.72;102498.09;4981425;28;20070;-78
2021/03/18 06:25:43;;;;;;;60.92;18.08;;;;;;;-0.11;98.53;102492.88;4972391;28;20061;-79
2021/03/18 06:28:13;;;;;;;62.72;17.67;;;;;;;-0.05;98.90;102495.28;4966319;28;20147;-79
2021/03/18 06:30:40;;;;;;;45.22;17.08;;;;;;;-0.05;98.16;102464.34;4971338;28;20050;-77
2021/03/18 06:33:21;;;;;;;75.53;17.83;;;;;;;-0.02;98.29;102484.91;4954169;28;20042;-78
2021/03/18 06:35:46;;;;;;;50.78;16.42;;;;;;;0.14;98.01;102497.47;4971005;28;20840;-78
2021/03/18 06:38:12;;;;;;;47.03;16.60;;;;;;;0.21;97.86;102498.16;4988361;28;20121;-78
2021/03/18 06:40:43;;;;;;;45.80;17.17;;;;;;;0.09;98.03;102488.97;4987215;28;20054;-77
2021/03/18 06:43:11;;;;;;;116.47;19.35;;;;;;;0.03;98.38;102481.38;4969838;28;20501;-79
2021/03/18 06:45:42;;;;;;;46.85;17.85;;;;;;;-0.01;98.76;102489.19;4968940;28;20154;-78
2021/03/18 06:48:11;;;;;;;50.65;18.73;;;;;;;0.02;99.02;102479.66;4955153;28;20053;-78
2021/03/18 06:50:41;;;;;;;53.75;18.83;;;;;;;0.19;98.48;102477.56;4955657;28;20050;-78
2021/03/18 06:53:25;;;;;;;45.78;18.30;;;;;;;0.27;98.30;102492.84;4971376;28;20049;-78
2021/03/18 06:55:55;;;;;;;48.15;17.50;;;;;;;0.26;98.03;102473.91;4992721;28;20069;-78
2021/03/18 06:58:27;;;;;;;52.67;18.00;;;;;;;0.20;98.14;102481.81;4989232;28;20108;-77
2021/03/18 07:00:56;;;;;;;149.45;22.75;;;;;;;0.15;98.77;102476.78;4973086;28;20058;-78
2021/03/18 07:03:33;;;;;;;140.80;22.48;;;;;;;0.09;99.16;102470.91;4993435;28;20050;-77
2021/03/18 07:06:02;;;;;;;58.30;19.30;;;;;;;0.24;99.41;102483.44;4977088;28;20137;-77
2021/03/18 07:08:31;;;;;;;62.08;20.25;;;;;;;0.24;99.13;102469.69;5005136;28;20643;-78
2021/03/18 07:10:57;;;;;;;59.75;19.65;;;;;;;0.45;98.74;102478.63;4996173;28;20050;-79
2021/03/18 07:13:24;;;;;;;55.47;20.52;;;;;;;0.50;98.76;102475.03;4972266;28;20088;-78
2021/03/18 07:15:52;;;;;;;58.80;21.75;;;;;;;0.58;98.00;102472.28;4971489;28;20047;-77
2021/03/18 07:18:18;;;;;;;66.03;21.63;;;;;;;0.52;98.11;102462.94;5005701;28;20046;-78
2021/03/18 07:21:04;;;;;;;91.93;23.20;;;;;;;0.62;97.89;102467.88;4985960;28;20054;-79
2021/03/18 07:23:46;;;;;;;67.22;22.52;;;;;;;0.68;98.14;102467.72;5017975;28;20053;-76
2021/03/18 07:26:18;;;;;;;60.90;21.60;;;;;;;0.81;98.02;102476.84;5010831;28;20045;-78
2021/03/18 07:28:47;;;;;;;63.67;21.27;;;;;;;0.84;98.17;102473.31;5006617;28;20047;-78
2021/03/18 07:31:14;;;;;;;58.42;21.50;;;;;;;0.90;97.73;102473.16;5014477;28;20118;-79
2021/03/18 07:33:40;;;;;;;58.40;20.92;;;;;;;0.98;97.50;102478.97;4990275;28;20042;-78
2021/03/18 07:36:06;;;;;;;58.55;21.73;;;;;;;1.02;97.57;102484.88;4972283;28;20050;-77
2021/03/18 07:38:34;;;;;;;60.85;21.45;;;;;;;0.96;97.46;102478.16;4985550;28;20050;-77
2021/03/18 07:41:00;;;;;;;63.63;22.40;;;;;;;0.97;96.71;102469.53;4963334;28;20042;-78
2021/03/18 07:43:26;;;;;;;74.07;24.35;;;;;;;0.83;97.20;102476.78;4939859;28;20053;-79
2021/03/18 07:45:53;;;;;;;80.50;25.50;;;;;;;0.82;97.84;102473.38;4986499;28;20046;-77
2021/03/18 07:48:23;;;;;;;71.45;23.55;;;;;;;0.92;97.28;102482.59;4991171;28;20131;-79
2021/03/18 07:50:50;;;;;;;71.93;25.02;;;;;;;1.06;98.07;102484.78;4975251;28;20042;-77
2021/03/18 07:53:18;;;;;;;53.30;20.10;;;;;;;1.23;97.09;102486.06;4983444;28;20170;-77
2021/03/18 07:55:48;;;;;;;53.05;20.75;;;;;;;1.10;96.98;102463.13;4959677;28;20101;-78
2021/03/18 07:58:14;;;;;;;59.05;21.70;;;;;;;1.22;96.88;102464.50;4981111;28;20046;-77
2021/03/18 08:00:43;;;;;;;69.57;23.67;;;;;;;1.27;97.74;102469.56;4975970;28;20051;-78
2021/03/18 08:03:21;;;;;;;66.63;22.60;;;;;;;1.38;97.37;102475.28;4975729;28;20045;-77
2021/03/18 08:05:47;;;;;;;71.10;24.92;;;;;;;1.34;97.05;102471.91;4969204;28;20090;-78
2021/03/18 08:08:30;;;;;;;73.82;24.08;;;;;;;1.41;97.63;102464.81;4974731;28;20088;-77
2021/03/18 08:11:07;;;;;;;63.35;21.52;;;;;;;1.58;97.09;102460.88;4957985;28;20047;-79
2021/03/18 08:13:34;;;;;;;55.75;20.75;;;;;;;1.51;96.45;102461.09;4958529;28;20067;-77
2021/03/18 08:16:00;;;;;;;54.13;20.15;;;;;;;1.51;96.83;102461.09;4974687;28;20038;-77
2021/03/18 08:18:26;;;;;;;52.85;19.80;;;;;;;1.59;96.08;102462.59;4989112;28;20049;-75
2021/03/18 08:20:51;;;;;;;56.45;19.05;;;;;;;1.52;96.36;102461.91;4993340;28;20069;-79
2021/03/18 08:23:26;;;;;;;54.25;20.42;;;;;;;1.59;95.89;102457.44;4965667;28;20556;-78
2021/03/18 08:25:56;;;;;;;54.90;21.27;;;;;;;1.61;94.88;102455.63;4978976;28;20046;-77
2021/03/18 08:28:45;;;;;;;53.13;19.52;;;;;;;1.64;95.05;102460.69;4990613;28;20049;-79
2021/03/18 08:31:17;;;;;;;53.20;20.73;;;;;;;1.57;95.57;102456.63;4992139;28;20667;-78
2021/03/18 08:33:47;;;;;;;64.18;21.98;;;;;;;1.34;96.43;102464.16;4975438;28;20074;-78
2021/03/18 08:36:22;;;;;;;69.18;22.25;;;;;;;1.44;96.57;102459.56;4958488;28;20207;-79
2021/03/18 08:39:12;;;;;;;64.82;22.80;;;;;;;1.47;96.17;102456.91;4990339;28;20057;-78
2021/03/18 08:41:45;;;;;;;59.22;21.80;;;;;;;1.44;96.33;102444.03;4959459;28;20105;-78
2021/03/18 08:44:24;;;;;;;52.03;18.55;;;;;;;1.52;96.24;102454.16;4958735;28;20100;-79
2021/03/18 08:47:05;;;;;;;51.28;19.55;;;;;;;1.42;95.86;102448.41;4976126;28;20062;-77
2021/03/18 08:49:36;;;;;;;64.00;21.77;;;;;;;1.41;96.30;102461.38;4962685;28;20058;-77
2021/03/18 08:52:07;;;;;;;62.03;20.45;;;;;;;1.43;95.96;102441.50;4957975;28;20054;-77
2021/03/18 08:54:36;;;;;;;67.45;21.50;;;;;;;1.67;95.34;102452.84;4970143;28;20038;-78
2021/03/18 08:57:08;;;;;;;63.38;22.40;;;;;;;1.77;96.03;102458.59;4975518;28;20046;-78
2021/03/18 08:59:38;;;;;;;64.63;23.33;;;;;;;1.95;94.73;102451.09;4969904;28;20667;-78
2021/03/18 09:02:06;;;;;;;64.80;22.02;;;;;;;2.02;93.77;102437.97;4955371;28;20046;-77
2021/03/18 09:04:35;;;;;;;66.47;22.02;;;;;;;2.12;93.96;102453.13;4953265;28;20420;-79
2021/03/18 09:07:21;;;;;;;69.15;24.17;;;;;;;2.22;93.96;102452.84;4987283;28;20077;-78
2021/03/18 09:10:08;;;;;;;67.60;23.55;;;;;;;2.31;93.03;102443.00;4975376;28;20540;-78
2021/03/18 09:12:49;;;;;;;68.95;25.13;;;;;;;2.37;92.64;102448.91;4990678;28;20453;-77
2021/03/18 09:15:35;;;;;;;66.45;24.02;;;;;;;2.31;92.15;102447.34;4986550;28;20138;-78
2021/03/18 09:18:18;;;;;;;64.65;22.00;;;;;;;2.44;92.12;102459.00;4956678;28;20133;-77
2021/03/18 09:20:56;;;;;;;61.80;23.95;;;;;;;2.50;92.23;102460.53;4987259;28;20062;-78
2021/03/18 09:23:25;;;;;;;64.68;23.50;;;;;;;2.69;92.10;102455.56;4973381;28;20058;-78
2021/03/18 09:25:52;;;;;;;51.47;20.98;;;;;;;2.86;90.86;102466.22;4973115;28;20092;-78
2021/03/18 09:28:18;;;;;;;54.25;20.77;;;;;;;2.92;90.14;102449.59;4964075;28;20522;-77
2021/03/18 09:30:48;;;;;;;50.72;20.33;;;;;;;3.11;89.82;102453.19;4972411;28;20050;-77
2021/03/18 09:33:18;;;;;;;44.80;19.52;;;;;;;3.17;88.67;102461.66;4976828;28;20053;-78
2021/03/18 09:35:44;;;;;;;43.40;18.08;;;;;;;3.28;87.29;102455.16;4969995;28;20054;-77
2021/03/18 09:38:16;;;;;;;42.45;18.02;;;;;;;3.26;87.78;102450.94;5001739;28;20065;-78
2021/03/18 09:40:41;;;;;;;43.35;18.20;;;;;;;3.31;87.52;102449.88;4955185;28;20081;-77
2021/03/18 09:43:07;;;;;;;40.72;17.73;;;;;;;3.27;87.95;102452.63;4988845;28;20077;-78
2021/03/18 09:45:33;;;;;;;46.00;21.23;;;;;;;3.27;87.47;102442.25;4990541;28;20060;-77
2021/03/18 09:47:59;;;;;;;53.38;21.40;;;;;;;3.27;87.35;102444.84;4989093;28;20154;-78
2021/03/18 09:50:28;;;;;;;51.35;22.42;;;;;;;3.15;87.61;102429.75;4953682;28;20057;-77
2021/03/18 09:53:11;;;;;;;51.13;22.00;;;;;;;3.14;87.79;102446.19;4963274;28;20509;-78
2021/03/18 09:55:37;;;;;;;54.80;24.20;;;;;;;3.02;88.37;102424.16;4960187;28;20046;-79
2021/03/18 09:58:07;;;;;;;56.85;24.40;;;;;;;2.99;89.17;102439.81;4976545;28;20735;-79
2021/03/18 10:00:33;;;;;;;55.03;24.95;;;;;;;2.87;88.97;102434.19;4978409;28;20045;-78
2021/03/18 10:03:00;;;;;;;59.20;25.25;;;;;;;2.76;89.60;102430.28;4971218;28;20046;-78
2021/03/18 10:05:26;;;;;;;53.25;24.60;;;;;;;2.73;89.49;102434.69;4956736;28;20054;-78
2021/03/18 10:07:55;;;;;;;51.97;24.15;;;;;;;2.89;89.29;102427.19;4972043;28;20137;-78
2021/03/18 10:10:22;;;;;;;52.28;24.90;;;;;;;3.00;88.72;102431.16;4971950;28;20420;-77
2021/03/18 10:12:50;;;;;;;48.45;23.23;;;;;;;2.89;88.32;102423.75;4956659;28;20056;-75
2021/03/18 10:15:19;;;;;;;50.40;23.42;;;;;;;2.86;88.55;102424.72;4956124;28;20048;-77
2021/03/18 10:17:46;;;;;;;49.85;22.95;;;;;;;2.96;88.01;102426.97;4954901;28;20049;-77
2021/03/18 10:20:25;;;;;;;47.83;21.83;;;;;;;2.89;87.62;102418.59;4970876;28;20034;-77
2021/03/18 10:23:04;;;;;;;47.20;21.25;;;;;;;2.96;87.90;102407.09;4973170;28;20509;-78
2021/03/18 10:25:35;;;;;;;45.33;21.60;;;;;;;2.94;88.20;102395.94;4951759;28;20042;-80
2021/03/18 10:28:09;;;;;;;36.03;19.30;;;;;;;3.04;87.92;102396.44;4979975;28;20046;-76
2021/03/18 10:30:39;;;;;;;36.35;18.13;;;;;;;3.10;87.37;102397.03;4976364;28;20049;-76
2021/03/18 10:33:37;;;;;;;35.20;18.17;;;;;;;3.28;88.15;102397.28;4990634;28;20058;-78
2021/03/18 10:36:04;;;;;;;34.92;16.23;;;;;;;3.62;87.46;102395.97;4939060;28;20158;-77
2021/03/18 10:38:33;;;;;;;23.38;10.45;;;;;;;3.93;83.96;102382.56;4993470;28;20052;-77
2021/03/18 10:41:04;;;;;;;19.38;9.13;;;;;;;4.15;82.83;102385.13;4986258;28;20046;-78
2021/03/18 10:43:32;;;;;;;13.13;7.47;;;;;;;4.29;82.01;102385.41;4961038;28;20046;-76
2021/03/18 10:46:03;;;;;;;11.63;7.13;;;;;;;4.43;79.63;102374.41;4958688;28;20070;-77
2021/03/18 10:48:33;;;;;;;12.68;7.05;;;;;;;4.39;80.72;102374.56;4959535;28;20188;-78
2021/03/18 10:51:12;;;;;;;10.10;6.30;;;;;;;4.49;79.53;102370.69;4975547;28;20046;-77
2021/03/18 10:53:40;;;;;;;14.25;7.18;;;;;;;4.66;78.57;102380.34;4992336;28;20136;-79
2021/03/18 10:56:11;;;;;;;15.20;7.53;;;;;;;4.71;78.37;102372.31;4975951;28;20053;-80
2021/03/18 10:58:38;;;;;;;15.80;6.65;;;;;;;4.61;78.70;102382.28;4964011;28;20125;-77
2021/03/18 11:01:07;;;;;;;17.77;6.95;;;;;;;4.42;77.01;102370.09;4973586;28;20039;-77
2021/03/18 11:03:35;;;;;;;13.73;6.60;;;;;;;4.47;78.29;102375.94;4957178;28;20085;-77
2021/03/18 11:06:14;;;;;;;15.43;6.93;;;;;;;4.24;79.71;102363.97;4957945;28;20430;-77
2021/03/18 11:08:43;;;;;;;14.65;7.53;;;;;;;4.20;79.53;102359.81;4987313;28;20046;-77
2021/03/18 11:11:15;;;;;;;17.55;7.63;;;;;;;3.99;79.57;102364.13;4986660;28;20586;-76
2021/03/18 11:13:42;;;;;;;11.52;7.53;;;;;;;3.97;79.41;102367.72;4993494;28;20053;-77
2021/03/18 11:16:10;;;;;;;12.65;7.13;;;;;;;4.02;79.28;102347.59;4979350;28;20046;-78
2021/03/18 11:18:38;;;;;;;13.63;6.75;;;;;;;4.19;79.99;102354.66;4958625;28;20042;-81
2021/03/18 11:21:18;;;;;;;13.38;6.97;;;;;;;4.33;77.17;102344.50;4962071;28;20054;-79
2021/03/18 11:23:45;;;;;;;14.80;7.45;;;;;;;4.53;77.82;102335.84;4978117;28;20074;-78
2021/03/18 11:26:11;;;;;;;11.93;6.55;;;;;;;4.61;75.26;102346.75;4962569;28;20046;-76
2021/03/18 11:28:57;;;;;;;12.65;6.40;;;;;;;4.79;76.44;102349.44;4973613;28;20053;-79